createdAt,value
2019-04-07T00:01:51.596Z,82.73
2019-04-07T00:04:20.381Z,82.18
2019-04-07T00:06:48.398Z,82.41
2019-04-07T00:09:16.740Z,81.54
2019-04-07T00:11:45.217Z,83.60
2019-04-07T00:14:13.902Z,84.06
2019-04-07T00:19:19.001Z,81.44
2019-04-07T00:21:47.892Z,81.60
2019-04-07T00:24:15.700Z,82.54
2019-04-07T00:26:44.710Z,81.98
2019-04-07T00:29:12.461Z,81.23
2019-04-07T00:31:40.837Z,80.39
2019-04-07T00:34:09.634Z,82.53
2019-04-07T00:36:37.913Z,82.44
2019-04-07T00:41:40.323Z,84.01
2019-04-07T00:44:08.475Z,82.74
2019-04-07T00:49:11.609Z,85.40
2019-04-07T00:51:39.369Z,86.66
2019-04-07T00:54:08.364Z,87.46
2019-04-07T00:56:36.079Z,87.98
2019-04-07T00:59:04.441Z,87.33
2019-04-07T01:01:32.853Z,86.09
2019-04-07T01:04:01.222Z,85.34
2019-04-07T01:06:29.579Z,84.90
2019-04-07T01:11:32.271Z,87.10
2019-04-07T01:14:00.708Z,84.00
2019-04-07T01:16:29.406Z,87.13
2019-04-07T01:18:57.875Z,87.85
2019-04-07T01:21:25.661Z,86.35
2019-04-07T01:23:54.462Z,88.72
2019-04-07T01:26:22.759Z,89.76
2019-04-07T01:28:50.841Z,88.73
2019-04-07T01:31:19.761Z,90.23
2019-04-07T01:36:24.975Z,89.26
2019-04-07T01:38:53.297Z,88.78
2019-04-07T01:41:24.060Z,88.60
2019-04-07T01:43:57.917Z,89.19
2019-04-07T01:49:01.029Z,89.16
2019-04-07T01:57:05.972Z,92.19
2019-04-07T01:59:39.832Z,91.97
2019-04-07T02:04:58.233Z,93.64
2019-04-07T02:07:27.278Z,92.38
2019-04-07T02:10:05.429Z,92.45
2019-04-07T02:18:08.589Z,92.46
2019-04-07T02:20:52.154Z,92.57
2019-04-07T02:26:16.319Z,91.61
2019-04-07T02:37:41.268Z,89.52
2019-04-07T02:40:12.052Z,89.70
2019-04-07T02:42:40.927Z,89.34
2019-04-07T02:48:03.056Z,85.54
2019-04-07T02:50:36.855Z,87.95
2019-04-07T02:56:07.992Z,91.41
2019-04-07T02:58:35.833Z,91.35
2019-04-07T03:01:09.564Z,90.43
2019-04-07T03:03:36.974Z,90.31
2019-04-07T03:06:08.854Z,90.16
2019-04-07T03:08:38.528Z,89.63
2019-04-07T03:11:07.549Z,88.73
2019-04-07T03:16:32.920Z,87.86
2019-04-07T03:24:49.659Z,84.43
2019-04-07T03:27:33.897Z,84.00
2019-04-07T03:30:04.093Z,84.68
2019-04-07T03:32:37.458Z,85.68
2019-04-07T03:35:07.825Z,86.65
2019-04-07T03:40:38.133Z,86.72
2019-04-07T03:43:07.381Z,86.70
2019-04-07T03:45:39.181Z,87.08
2019-04-07T03:48:08.557Z,87.12
2019-04-07T03:50:40.777Z,87.58
2019-04-07T03:53:10.946Z,88.36
2019-04-07T03:55:41.331Z,87.80
2019-04-07T03:58:16.028Z,88.93
2019-04-07T04:01:06.832Z,89.23
2019-04-07T04:03:40.719Z,89.49
2019-04-07T04:06:12.803Z,89.04
2019-04-07T04:08:53.720Z,89.01
2019-04-07T04:11:32.430Z,86.31
2019-04-07T04:14:04.513Z,86.87
2019-04-07T04:16:32.133Z,88.25
2019-04-07T04:19:00.330Z,89.39
2019-04-07T04:21:28.893Z,87.15
2019-04-07T04:23:57.822Z,89.18
2019-04-07T04:26:25.601Z,91.21
2019-04-07T04:28:55.145Z,91.13
2019-04-07T04:31:22.538Z,90.67
2019-04-07T04:33:51.793Z,91.39
2019-04-07T04:36:19.308Z,91.74
2019-04-07T04:38:48.056Z,92.53
2019-04-07T04:41:16.872Z,93.34
2019-04-07T04:43:45.161Z,93.52
2019-04-07T04:46:13.565Z,91.29
2019-04-07T04:48:41.323Z,91.35
2019-04-07T04:51:09.791Z,92.90
2019-04-07T04:53:38.145Z,91.30
2019-04-07T04:58:40.694Z,90.86
2019-04-07T05:01:09.632Z,90.23
2019-04-07T05:03:38.245Z,91.17
2019-04-07T05:08:43.294Z,90.41
2019-04-07T05:11:11.444Z,88.02
2019-04-07T05:13:39.816Z,91.33
2019-04-07T05:16:08.338Z,91.89
2019-04-07T05:18:37.130Z,90.45
2019-04-07T05:21:05.244Z,89.86
2019-04-07T05:23:33.357Z,89.87
2019-04-07T05:26:01.655Z,90.25
2019-04-07T05:28:32.599Z,89.77
2019-04-07T05:30:59.097Z,86.77
2019-04-07T05:33:26.834Z,86.12
2019-04-07T05:38:30.223Z,88.16
2019-04-07T05:40:57.808Z,88.23
2019-04-07T05:43:26.200Z,87.90
2019-04-07T05:45:54.498Z,88.00
2019-04-07T05:48:22.855Z,86.72
2019-04-07T05:50:51.381Z,85.33
2019-04-07T05:53:19.574Z,83.57
2019-04-07T05:55:47.923Z,83.23
2019-04-07T05:58:16.282Z,82.27
2019-04-07T06:03:22.006Z,80.18
2019-04-07T06:05:51.088Z,79.92
2019-04-07T06:08:27.976Z,79.12
2019-04-07T06:10:48.057Z,79.63
2019-04-07T06:13:17.604Z,79.87
2019-04-07T06:20:55.168Z,81.72
2019-04-07T06:26:00.902Z,81.27
2019-04-07T06:28:30.329Z,80.58
2019-04-07T06:33:34.728Z,78.89
2019-04-07T06:36:02.886Z,77.92
2019-04-07T06:38:34.968Z,77.97
2019-04-07T06:41:02.878Z,77.52
2019-04-07T06:43:30.276Z,77.27
2019-04-07T06:46:17.507Z,77.75
2019-04-07T06:48:51.439Z,79.25
2019-04-07T06:51:21.484Z,77.98
2019-04-07T06:53:55.699Z,78.75
2019-04-07T06:56:24.243Z,76.42
2019-04-07T06:58:54.758Z,75.03
2019-04-07T07:01:25.795Z,73.95
2019-04-07T07:06:39.425Z,70.32
2019-04-07T07:09:15.497Z,69.42
2019-04-07T07:11:48.611Z,69.08
2019-04-07T07:16:57.384Z,68.80
2019-04-07T07:27:10.548Z,67.70
2019-04-07T07:32:11.574Z,68.07
2019-04-07T07:34:41.294Z,66.64
2019-04-07T07:37:08.347Z,66.05
2019-04-07T07:42:10.589Z,67.13
2019-04-07T07:44:39.750Z,66.34
2019-04-07T07:49:42.381Z,66.68
2019-04-07T07:52:10.356Z,64.95
2019-04-07T07:54:38.636Z,61.91
2019-04-07T07:57:06.864Z,61.33
2019-04-07T07:59:38.998Z,61.34
2019-04-07T08:02:03.453Z,61.25
2019-04-07T08:04:31.733Z,62.27
2019-04-07T08:07:02.419Z,62.66
2019-04-07T08:09:28.467Z,61.54
2019-04-07T08:11:57.820Z,61.20
2019-04-07T08:14:26.122Z,60.03
2019-04-07T08:16:55.392Z,60.13
2019-04-07T08:21:57.426Z,58.53
2019-04-07T08:24:26.156Z,59.75
2019-04-07T08:26:56.520Z,59.70
2019-04-07T08:29:22.495Z,58.91
2019-04-07T08:31:54.161Z,59.60
2019-04-07T08:34:19.286Z,59.40
2019-04-07T08:36:48.179Z,59.42
2019-04-07T08:39:22.720Z,60.92
2019-04-07T08:44:18.948Z,59.10
2019-04-07T08:51:57.002Z,60.73
2019-04-07T08:54:24.737Z,58.06
2019-04-07T08:56:56.280Z,60.22
2019-04-07T08:59:22.516Z,59.87
2019-04-07T09:01:52.737Z,59.66
2019-04-07T09:06:53.773Z,57.69
2019-04-07T09:09:31.372Z,58.96
2019-04-07T09:11:52.979Z,57.13
2019-04-07T09:16:59.117Z,59.06
2019-04-07T09:19:37.046Z,58.85
2019-04-07T09:22:10.516Z,59.88
2019-04-07T09:30:26.145Z,54.88
2019-04-07T09:35:56.651Z,57.11
2019-04-07T09:38:27.395Z,57.69
2019-04-07T09:43:30.606Z,53.55
2019-04-07T09:46:11.926Z,52.36
2019-04-07T09:51:19.711Z,50.01
2019-04-07T09:53:51.025Z,51.05
2019-04-07T09:58:53.610Z,55.35
2019-04-07T10:01:27.957Z,55.89
2019-04-07T10:06:30.776Z,52.24
2019-04-07T10:08:59.964Z,51.39
2019-04-07T10:11:28.486Z,50.73
2019-04-07T10:16:57.922Z,52.33
2019-04-07T10:19:39.128Z,55.38
2019-04-07T10:22:07.387Z,53.40
2019-04-07T10:24:37.473Z,54.65
2019-04-07T10:27:08.218Z,54.53
2019-04-07T10:29:41.512Z,52.60
2019-04-07T10:32:15.374Z,52.16
2019-04-07T10:34:45.054Z,51.95
2019-04-07T10:37:13.373Z,51.75
2019-04-07T10:42:10.361Z,50.08
2019-04-07T10:44:55.324Z,51.85
2019-04-07T10:47:23.945Z,50.20
2019-04-07T10:50:00.998Z,46.65
2019-04-07T10:52:41.680Z,46.79
2019-04-07T10:58:07.262Z,44.23
2019-04-07T11:00:45.256Z,47.00
2019-04-07T11:03:14.708Z,48.23
2019-04-07T11:05:55.975Z,47.23
2019-04-07T11:13:42.150Z,48.24
2019-04-07T11:16:11.677Z,50.31
2019-04-07T11:18:41.014Z,49.53
2019-04-07T11:24:08.939Z,46.42
2019-04-07T11:32:20.696Z,47.93
2019-04-07T11:34:53.410Z,46.94
2019-04-07T11:37:32.838Z,49.12
2019-04-07T11:43:00.525Z,48.18
2019-04-07T11:45:29.234Z,47.40
2019-04-07T11:51:26.039Z,44.29
2019-04-07T12:02:21.697Z,40.50
2019-04-07T12:04:52.018Z,41.16
2019-04-07T12:16:05.654Z,31.43
2019-04-07T12:21:20.736Z,29.82
2019-04-07T12:26:42.135Z,33.96
2019-04-07T12:31:44.235Z,34.49
2019-04-07T12:34:27.541Z,37.29
2019-04-07T12:45:26.602Z,31.57
2019-04-07T12:48:05.862Z,27.44
2019-04-07T12:50:35.631Z,26.84
2019-04-07T13:01:53.267Z,33.35
2019-04-07T13:07:17.098Z,29.92
2019-04-07T13:19:46.718Z,27.62
2019-04-07T13:24:48.745Z,26.23
2019-04-07T13:27:24.136Z,26.49
2019-04-07T13:35:50.875Z,28.05
2019-04-07T13:38:25.076Z,26.69
2019-04-07T13:40:53.111Z,28.02
2019-04-07T13:43:31.158Z,27.42
2019-04-07T13:51:36.524Z,26.42
2019-04-07T13:56:49.825Z,24.34
2019-04-07T13:59:19.456Z,24.67
2019-04-07T14:07:26.311Z,24.59
2019-04-07T14:09:57.098Z,23.85
2019-04-07T14:12:30.961Z,23.71
2019-04-07T14:14:57.047Z,26.51
2019-04-07T14:17:25.022Z,24.84
2019-04-07T14:22:28.873Z,23.79
2019-04-07T14:24:57.905Z,26.19
2019-04-07T14:27:36.222Z,23.50
2019-04-07T14:30:07.826Z,23.11
2019-04-07T14:32:39.592Z,23.28
2019-04-07T14:35:14.056Z,22.58
2019-04-07T14:37:49.435Z,23.40
2019-04-07T14:42:52.254Z,29.40
2019-04-07T14:45:27.068Z,30.80
2019-04-07T14:48:05.506Z,33.37
2019-04-07T14:53:35.540Z,34.64
2019-04-07T14:56:07.785Z,33.96
2019-04-07T14:58:38.024Z,35.49
2019-04-07T15:01:08.422Z,34.59
2019-04-07T15:03:36.350Z,28.86
2019-04-07T15:06:04.107Z,28.06
2019-04-07T15:08:33.246Z,29.90
2019-04-07T15:11:02.606Z,29.52
2019-04-07T15:16:04.500Z,36.66
2019-04-07T15:18:34.839Z,32.39
2019-04-07T15:23:38.478Z,31.30
2019-04-07T15:26:07.718Z,32.01
2019-04-07T15:28:35.371Z,32.58
2019-04-07T15:31:04.276Z,33.07
2019-04-07T15:36:08.906Z,28.11
2019-04-07T15:38:35.604Z,29.94
2019-04-07T15:41:07.748Z,30.71
2019-04-07T15:43:34.914Z,34.97
2019-04-07T15:46:00.160Z,32.34
2019-04-07T15:48:28.601Z,31.33
2019-04-07T15:51:00.807Z,31.95
2019-04-07T15:53:25.678Z,29.90
2019-04-07T15:56:01.973Z,30.29
2019-04-07T15:58:22.593Z,29.51
2019-04-07T16:00:51.595Z,32.60
2019-04-07T16:03:19.269Z,32.31
2019-04-07T16:08:27.253Z,34.41
2019-04-07T16:10:53.635Z,35.92
2019-04-07T16:13:21.732Z,38.81
2019-04-07T16:15:52.885Z,39.37
2019-04-07T16:18:18.972Z,39.89
2019-04-07T16:20:46.808Z,39.00
2019-04-07T16:23:18.325Z,38.02
2019-04-07T16:28:18.651Z,39.83
2019-04-07T16:30:50.169Z,40.18
2019-04-07T16:33:15.301Z,41.13
2019-04-07T16:35:43.979Z,40.73
2019-04-07T16:38:11.982Z,40.87
2019-04-07T16:40:42.085Z,40.85
2019-04-07T16:43:14.538Z,41.27
2019-04-07T16:48:11.526Z,43.58
2019-04-07T16:50:39.888Z,46.13
2019-04-07T16:55:46.613Z,48.27
2019-04-07T16:58:11.686Z,49.12
2019-04-07T17:00:39.873Z,49.31
2019-04-07T17:03:08.613Z,49.02
2019-04-07T17:05:37.520Z,47.01
2019-04-07T17:08:05.515Z,48.62
2019-04-07T17:10:35.291Z,49.82
2019-04-07T17:13:13.806Z,51.39
2019-04-07T17:15:31.639Z,49.46
2019-04-07T17:17:59.140Z,51.20
2019-04-07T17:20:28.425Z,49.64
2019-04-07T17:22:56.836Z,51.10
2019-04-07T17:25:25.457Z,52.87
2019-04-07T17:27:53.053Z,54.36
2019-04-07T17:30:24.916Z,53.93
2019-04-07T17:32:52.070Z,55.17
2019-04-07T17:35:19.118Z,51.71
2019-04-07T17:37:47.479Z,53.58
2019-04-07T17:42:52.698Z,54.66
2019-04-07T17:45:23.633Z,56.55
2019-04-07T17:47:53.124Z,58.76
2019-04-07T17:50:26.068Z,58.37
2019-04-07T17:55:33.125Z,60.25
2019-04-07T17:58:07.867Z,60.79
2019-04-07T18:00:41.077Z,61.21
2019-04-07T18:05:47.296Z,59.83
2019-04-07T18:08:15.894Z,59.27
2019-04-07T18:10:48.598Z,56.63
2019-04-07T18:15:51.025Z,56.59
2019-04-07T18:18:26.427Z,59.75
2019-04-07T18:23:34.816Z,58.87
2019-04-07T18:26:04.239Z,62.17
2019-04-07T18:28:39.155Z,61.92
2019-04-07T18:31:22.108Z,60.59
2019-04-07T18:33:55.108Z,60.85
2019-04-07T18:36:25.738Z,59.11
2019-04-07T18:39:00.396Z,62.83
2019-04-07T18:41:35.723Z,61.82
2019-04-07T18:44:08.608Z,63.57
2019-04-07T18:46:39.953Z,61.77
2019-04-07T18:49:13.304Z,63.14
2019-04-07T18:51:46.638Z,62.73
2019-04-07T18:56:47.496Z,62.86
2019-04-07T18:59:20.144Z,64.09
2019-04-07T19:01:47.357Z,65.68
2019-04-07T19:12:10.564Z,63.93
2019-04-07T19:14:44.272Z,67.78
2019-04-07T19:17:24.433Z,67.63
2019-04-07T19:22:25.976Z,62.89
2019-04-07T19:27:35.282Z,63.45
2019-04-07T19:30:05.887Z,68.01
2019-04-07T19:32:36.870Z,69.54
2019-04-07T19:38:14.271Z,73.61
2019-04-07T19:43:33.076Z,75.52
2019-04-07T19:48:44.936Z,77.61
2019-04-07T19:51:26.358Z,78.26
2019-04-07T19:53:58.017Z,79.70
2019-04-07T20:01:40.814Z,79.78
2019-04-07T20:04:14.656Z,79.33
2019-04-07T20:18:06.002Z,83.12
2019-04-07T20:20:46.882Z,83.87
2019-04-07T20:23:17.368Z,84.15
2019-04-07T20:25:49.210Z,84.32
2019-04-07T20:28:17.437Z,85.10
2019-04-07T20:30:49.754Z,85.09
2019-04-07T20:33:38.062Z,85.48
2019-04-07T20:36:20.095Z,85.88
2019-04-07T20:38:46.493Z,85.50
2019-04-07T20:41:24.340Z,86.55
2019-04-07T20:43:57.592Z,86.72
2019-04-07T20:46:30.554Z,86.90
2019-04-07T20:51:37.102Z,86.82
2019-04-07T20:54:07.678Z,86.88
2019-04-07T20:56:41.972Z,87.19
2019-04-07T21:02:10.937Z,87.30
2019-04-07T21:07:35.869Z,88.54
2019-04-07T21:10:10.903Z,89.03
2019-04-07T21:15:23.642Z,89.14
2019-04-07T21:17:42.319Z,89.68
2019-04-07T21:20:21.256Z,90.98
2019-04-07T21:22:54.976Z,90.88
2019-04-07T21:25:25.150Z,91.14
2019-04-07T21:27:54.741Z,91.54
2019-04-07T21:33:09.425Z,90.68
2019-04-07T21:35:53.596Z,91.39
2019-04-07T21:38:26.190Z,90.87
2019-04-07T21:40:55.561Z,91.05
2019-04-07T21:43:29.362Z,91.56
2019-04-07T21:54:04.104Z,90.07
2019-04-07T21:56:34.729Z,90.26
2019-04-07T21:59:07.619Z,90.28
2019-04-07T22:01:37.769Z,90.77
2019-04-07T22:04:05.015Z,91.71
2019-04-07T22:09:24.632Z,92.25
2019-04-07T22:14:26.667Z,91.45
2019-04-07T22:16:56.828Z,90.76
2019-04-07T22:19:24.411Z,91.83
2019-04-07T22:21:55.001Z,92.05
2019-04-07T22:24:21.912Z,91.71
2019-04-07T22:26:50.254Z,90.91
2019-04-07T22:29:18.244Z,91.31
2019-04-07T22:31:47.989Z,90.24
2019-04-07T22:34:16.555Z,90.47
2019-04-07T22:36:46.774Z,91.83
2019-04-07T22:39:14.100Z,92.27
2019-04-07T22:41:42.654Z,91.76
2019-04-07T22:44:11.324Z,92.14
2019-04-07T22:46:39.596Z,92.15
2019-04-07T22:49:07.565Z,93.77
2019-04-07T22:51:38.095Z,94.45
2019-04-07T22:54:05.778Z,94.15
2019-04-07T22:56:38.124Z,93.60
2019-04-07T22:59:04.227Z,94.46
2019-04-07T23:01:35.458Z,94.82
2019-04-07T23:06:38.326Z,95.66
2019-04-07T23:09:06.151Z,95.63
2019-04-07T23:11:35.469Z,97.07
2019-04-07T23:14:03.109Z,98.53
2019-04-07T23:16:31.670Z,99.60
2019-04-07T23:19:02.589Z,100.00
2019-04-07T23:21:30.028Z,100.00
2019-04-07T23:23:58.394Z,100.00
2019-04-07T23:26:26.743Z,100.00
2019-04-07T23:28:56.059Z,100.00
2019-04-07T23:31:24.340Z,100.00
2019-04-07T23:33:52.679Z,100.00
2019-04-07T23:36:21.028Z,100.00
2019-04-07T23:38:49.628Z,100.00
2019-04-07T23:41:18.097Z,100.00
2019-04-07T23:43:46.058Z,100.00
2019-04-07T23:46:22.846Z,100.00
2019-04-07T23:48:43.798Z,100.00
2019-04-07T23:51:12.304Z,100.00
2019-04-07T23:53:52.569Z,100.00
2019-04-07T23:56:19.846Z,100.00
2019-04-07T23:58:47.743Z,100.00
